createdAt,value
2022-08-23T00:01:24.274Z,3.10
2022-08-23T00:04:13.817Z,3.00
2022-08-23T00:07:00.341Z,2.60
2022-08-23T00:09:46.128Z,2.80
2022-08-23T00:12:31.364Z,3.25
2022-08-23T00:15:19.396Z,2.65
2022-08-23T00:18:04.727Z,2.50
2022-08-23T00:20:50.624Z,2.58
2022-08-23T00:23:36.082Z,2.20
2022-08-23T00:26:21.885Z,2.78
2022-08-23T00:29:07.261Z,2.30
2022-08-23T00:31:53.015Z,2.40
2022-08-23T00:34:39.695Z,2.63
2022-08-23T00:37:25.332Z,1.80
2022-08-23T00:40:13.117Z,2.50
2022-08-23T00:43:29.775Z,2.40
2022-08-23T00:46:58.213Z,2.20
2022-08-23T00:49:47.295Z,2.40
2022-08-23T00:52:39.924Z,2.15
2022-08-23T00:55:26.596Z,2.28
2022-08-23T00:58:14.361Z,2.22
2022-08-23T01:01:02.208Z,1.80
2022-08-23T01:03:57.080Z,2.00
2022-08-23T01:07:04.431Z,1.95
2022-08-23T01:09:51.473Z,2.22
2022-08-23T01:12:46.247Z,1.70
2022-08-23T01:15:46.297Z,2.03
2022-08-23T01:18:33.404Z,1.95
2022-08-23T01:21:26.483Z,1.80
2022-08-23T01:24:18.025Z,1.67
2022-08-23T01:27:14.429Z,1.63
2022-08-23T01:29:59.592Z,2.17
2022-08-23T01:32:50.043Z,1.77
2022-08-23T01:35:42.196Z,2.00
2022-08-23T01:41:13.258Z,2.10
2022-08-23T01:43:58.729Z,1.90
2022-08-23T01:46:47.662Z,2.10
2022-08-23T01:49:34.705Z,2.10
2022-08-23T01:52:21.227Z,2.00
2022-08-23T01:55:07.500Z,1.88
2022-08-23T01:57:59.941Z,2.08
2022-08-23T02:00:45.587Z,1.98
2022-08-23T02:03:32.818Z,2.17
2022-08-23T02:06:18.419Z,2.25
2022-08-23T02:09:05.827Z,1.90
2022-08-23T02:12:04.290Z,2.30
2022-08-23T02:14:50.899Z,2.13
2022-08-23T02:17:41.030Z,2.47
2022-08-23T02:20:26.288Z,1.90
2022-08-23T02:23:12.627Z,1.88
2022-08-23T02:25:57.980Z,2.10
2022-08-23T02:28:44.125Z,1.90
2022-08-23T02:31:29.248Z,2.08
2022-08-23T02:34:16.628Z,2.00
2022-08-23T02:37:03.172Z,2.08
2022-08-23T02:39:48.821Z,2.17
2022-08-23T02:42:34.759Z,2.50
2022-08-23T02:45:21.465Z,1.90
2022-08-23T02:48:08.316Z,2.30
2022-08-23T02:51:04.405Z,2.47
2022-08-23T02:53:50.039Z,2.13
2022-08-23T02:56:37.818Z,2.20
2022-08-23T02:59:23.839Z,2.30
2022-08-23T03:02:09.412Z,2.05
2022-08-23T03:04:58.857Z,2.03
2022-08-23T03:07:44.706Z,1.98
2022-08-23T03:10:31.092Z,2.40
2022-08-23T03:13:20.798Z,2.30
2022-08-23T03:16:09.704Z,2.50
2022-08-23T03:19:02.540Z,2.38
2022-08-23T03:21:48.117Z,2.50
2022-08-23T03:24:36.504Z,2.25
2022-08-23T03:27:22.266Z,2.25
2022-08-23T03:30:11.433Z,2.30
2022-08-23T03:33:09.120Z,2.28
2022-08-23T03:35:59.131Z,2.30
2022-08-23T03:38:45.221Z,2.70
2022-08-23T03:41:31.464Z,2.20
2022-08-23T03:44:16.809Z,2.40
2022-08-23T03:47:03.427Z,2.17
2022-08-23T03:49:48.953Z,2.50
2022-08-23T03:52:34.705Z,2.40
2022-08-23T03:55:20.228Z,2.42
2022-08-23T03:58:07.842Z,2.20
2022-08-23T04:00:53.321Z,2.53
2022-08-23T04:03:38.680Z,2.33
2022-08-23T04:06:24.088Z,2.40
2022-08-23T04:09:09.675Z,2.30
2022-08-23T04:11:55.193Z,2.45
2022-08-23T04:14:40.786Z,2.70
2022-08-23T04:17:26.413Z,2.65
2022-08-23T04:20:12.005Z,2.35
2022-08-23T04:23:07.711Z,2.20
2022-08-23T04:26:05.815Z,2.50
2022-08-23T04:28:54.830Z,2.50
2022-08-23T04:31:40.384Z,2.50
2022-08-23T04:34:28.641Z,2.30
2022-08-23T04:37:14.593Z,2.40
2022-08-23T04:40:19.045Z,2.40
2022-08-23T04:43:04.967Z,2.20
2022-08-23T04:45:50.468Z,2.33
2022-08-23T04:48:48.408Z,2.28
2022-08-23T04:51:35.481Z,2.10
2022-08-23T04:54:22.619Z,2.33
2022-08-23T04:57:28.870Z,2.33
2022-08-23T05:00:16.742Z,2.13
2022-08-23T05:03:09.140Z,2.13
2022-08-23T05:05:54.694Z,2.60
2022-08-23T05:08:45.207Z,2.30
2022-08-23T05:11:30.747Z,2.38
2022-08-23T05:14:16.976Z,2.35
2022-08-23T05:17:02.730Z,2.50
2022-08-23T05:19:48.896Z,2.20
2022-08-23T05:22:36.511Z,2.30
2022-08-23T05:25:52.486Z,2.15
2022-08-23T05:28:52.900Z,2.30
2022-08-23T05:31:43.912Z,2.20
2022-08-23T05:34:34.205Z,2.60
2022-08-23T05:37:23.438Z,2.70
2022-08-23T05:40:09.463Z,2.33
2022-08-23T05:43:02.250Z,2.45
2022-08-23T05:45:47.898Z,2.70
2022-08-23T05:48:34.922Z,2.38
2022-08-23T05:51:29.885Z,2.30
2022-08-23T05:57:01.305Z,2.30
2022-08-23T05:59:47.627Z,2.90
2022-08-23T06:02:32.885Z,3.10
2022-08-23T06:05:19.596Z,3.47
2022-08-23T06:08:06.288Z,3.60
2022-08-23T06:11:07.161Z,3.40
2022-08-23T06:13:59.659Z,2.88
2022-08-23T06:16:53.655Z,3.03
2022-08-23T06:19:42.190Z,2.67
2022-08-23T06:22:44.713Z,3.10
2022-08-23T06:25:30.398Z,3.08
2022-08-23T06:28:26.232Z,2.70
2022-08-23T06:31:13.327Z,3.10
2022-08-23T06:34:17.436Z,3.00
2022-08-23T06:37:22.232Z,2.45
2022-08-23T06:40:29.799Z,2.60
2022-08-23T06:43:36.378Z,2.60
2022-08-23T06:46:38.792Z,2.65
2022-08-23T06:49:25.356Z,2.83
2022-08-23T06:52:10.512Z,3.00
2022-08-23T06:55:18.027Z,2.70
2022-08-23T06:58:18.796Z,2.65
2022-08-23T07:01:46.555Z,2.10
2022-08-23T07:04:40.169Z,2.13
2022-08-23T07:07:44.852Z,2.40
2022-08-23T07:10:34.176Z,2.20
2022-08-23T07:13:19.571Z,2.10
2022-08-23T07:16:05.223Z,2.13
2022-08-23T07:18:52.964Z,2.50
2022-08-23T07:21:39.016Z,1.98
2022-08-23T07:24:29.344Z,2.20
2022-08-23T07:27:17.655Z,2.42
2022-08-23T07:30:16.539Z,1.88
2022-08-23T07:33:02.957Z,1.90
2022-08-23T07:35:55.611Z,2.10
2022-08-23T07:38:41.505Z,2.10
2022-08-23T07:41:32.829Z,2.13
2022-08-23T07:44:19.771Z,1.85
2022-08-23T07:47:09.160Z,1.95
2022-08-23T07:49:55.470Z,1.85
2022-08-23T07:52:41.225Z,1.92
2022-08-23T07:55:27.316Z,2.05
2022-08-23T07:58:22.663Z,2.15
2022-08-23T08:01:41.515Z,1.90
2022-08-23T08:04:27.145Z,1.35
2022-08-23T08:07:21.564Z,1.30
2022-08-23T08:10:14.653Z,1.35
2022-08-23T08:13:00.428Z,1.50
2022-08-23T08:15:47.033Z,1.38
2022-08-23T08:18:36.430Z,1.58
2022-08-23T08:21:42.374Z,1.50
2022-08-23T08:24:48.085Z,1.60
2022-08-23T08:27:33.282Z,1.50
2022-08-23T08:30:21.208Z,1.30
2022-08-23T08:33:07.166Z,1.58
2022-08-23T08:35:58.037Z,1.50
2022-08-23T08:38:50.334Z,1.20
2022-08-23T08:41:48.657Z,1.30
2022-08-23T08:44:57.961Z,1.30
2022-08-23T08:48:00.476Z,1.27
2022-08-23T08:50:55.191Z,1.40
2022-08-23T08:53:46.500Z,1.45
2022-08-23T08:56:34.382Z,1.33
2022-08-23T08:59:52.710Z,1.27
2022-08-23T09:02:40.217Z,1.40
2022-08-23T09:05:32.278Z,1.10
2022-08-23T09:08:39.990Z,1.20
2022-08-23T09:11:46.712Z,1.20
2022-08-23T09:14:53.691Z,1.20
2022-08-23T09:17:49.675Z,1.58
2022-08-23T09:20:36.498Z,1.50
2022-08-23T09:23:27.791Z,1.40
2022-08-23T09:26:24.004Z,1.52
2022-08-23T09:29:23.410Z,1.48
2022-08-23T09:32:33.897Z,1.60
2022-08-23T09:35:26.255Z,1.30
2022-08-23T09:38:26.968Z,1.40
2022-08-23T09:41:23.260Z,1.50
2022-08-23T09:44:16.330Z,1.30
2022-08-23T09:47:11.919Z,1.30
2022-08-23T09:50:25.893Z,1.65
2022-08-23T09:53:15.006Z,2.00
2022-08-23T09:56:16.472Z,2.65
2022-08-23T09:59:02.104Z,2.00
2022-08-23T10:02:02.068Z,2.22
2022-08-23T10:05:05.723Z,2.13
2022-08-23T10:08:01.592Z,1.98
2022-08-23T10:10:53.884Z,2.10
2022-08-23T10:13:48.897Z,2.40
2022-08-23T10:16:53.188Z,2.65
2022-08-23T10:19:58.231Z,2.55
2022-08-23T10:22:59.488Z,2.90
2022-08-23T10:25:58.751Z,2.35
2022-08-23T10:29:26.464Z,2.85
2022-08-23T10:32:30.037Z,1.88
2022-08-23T10:35:25.168Z,2.25
2022-08-23T10:38:40.247Z,2.60
2022-08-23T10:41:33.625Z,2.20
2022-08-23T10:44:33.212Z,1.73
2022-08-23T10:47:33.747Z,2.22
2022-08-23T10:50:21.068Z,1.50
2022-08-23T10:53:15.127Z,1.65
2022-08-23T10:56:04.871Z,1.20
2022-08-23T10:59:09.033Z,1.17
2022-08-23T11:02:28.130Z,1.15
2022-08-23T11:05:33.539Z,1.30
2022-08-23T11:08:34.015Z,1.33
2022-08-23T11:12:02.332Z,1.30
2022-08-23T11:15:12.450Z,1.10
2022-08-23T11:18:05.902Z,0.82
2022-08-23T11:23:51.930Z,1.10
2022-08-23T11:26:39.892Z,1.10
2022-08-23T11:29:28.236Z,1.00
2022-08-23T11:32:41.219Z,0.95
2022-08-23T11:35:37.821Z,1.40
2022-08-23T11:38:47.374Z,0.90
2022-08-23T11:41:36.859Z,0.90
2022-08-23T11:44:35.197Z,0.80
2022-08-23T11:47:41.197Z,1.10
2022-08-23T11:50:45.262Z,0.90
2022-08-23T11:53:49.159Z,1.30
2022-08-23T11:56:58.209Z,1.00
2022-08-23T12:00:17.513Z,1.40
2022-08-23T12:03:24.862Z,1.10
2022-08-23T12:06:39.287Z,0.90
2022-08-23T12:09:26.818Z,0.80
2022-08-23T12:12:26.202Z,1.02
2022-08-23T12:15:13.126Z,0.88
2022-08-23T12:18:13.076Z,1.20
2022-08-23T12:21:05.412Z,1.00
2022-08-23T12:23:57.086Z,1.00
2022-08-23T12:26:57.381Z,1.10
2022-08-23T12:29:54.944Z,0.90
2022-08-23T12:32:46.597Z,1.00
2022-08-23T12:35:50.509Z,0.90
2022-08-23T12:38:54.200Z,1.08
2022-08-23T12:42:06.867Z,1.13
2022-08-23T12:45:03.097Z,0.90
2022-08-23T12:48:00.849Z,1.10
2022-08-23T12:50:54.925Z,1.17
2022-08-23T12:53:45.389Z,0.90
2022-08-23T12:56:31.895Z,1.10
2022-08-23T12:59:33.239Z,1.15
2022-08-23T13:02:29.905Z,0.90
2022-08-23T13:05:41.638Z,0.90
2022-08-23T13:08:35.000Z,0.95
2022-08-23T13:11:23.597Z,1.00
2022-08-23T13:14:33.721Z,1.15
2022-08-23T13:17:42.161Z,1.23
2022-08-23T13:20:27.492Z,1.30
2022-08-23T13:23:17.308Z,1.10
2022-08-23T13:26:35.067Z,1.33
2022-08-23T13:29:24.520Z,1.20
2022-08-23T13:32:33.396Z,1.42
2022-08-23T13:35:36.025Z,1.58
2022-08-23T13:38:25.056Z,1.30
2022-08-23T13:41:26.092Z,1.08
2022-08-23T13:44:15.617Z,1.25
2022-08-23T13:47:23.653Z,1.10
2022-08-23T13:50:32.102Z,1.20
2022-08-23T13:53:17.657Z,1.30
2022-08-23T13:56:03.217Z,1.05
2022-08-23T13:59:07.447Z,1.05
2022-08-23T14:01:53.709Z,1.00
2022-08-23T14:04:39.060Z,1.10
2022-08-23T14:07:24.509Z,1.00
2022-08-23T14:10:09.856Z,1.00
2022-08-23T14:12:55.490Z,1.00
2022-08-23T14:16:32.368Z,1.20
2022-08-23T14:21:54.124Z,0.82
2022-08-23T14:24:39.785Z,1.00
2022-08-23T14:27:25.285Z,0.82
2022-08-23T14:30:18.995Z,1.00
2022-08-23T14:33:06.415Z,1.00
2022-08-23T14:35:52.473Z,1.20
2022-08-23T14:38:37.851Z,0.90
2022-08-23T14:41:26.868Z,1.02
2022-08-23T14:44:13.793Z,1.08
2022-08-23T14:46:59.052Z,1.23
2022-08-23T14:49:44.584Z,0.93
2022-08-23T14:52:30.017Z,1.00
2022-08-23T14:55:15.739Z,1.00
2022-08-23T14:58:01.264Z,1.00
2022-08-23T15:00:47.199Z,1.00
2022-08-23T15:03:32.948Z,1.00
2022-08-23T15:06:20.670Z,1.10
2022-08-23T15:09:05.886Z,0.90
2022-08-23T15:14:57.734Z,1.00
2022-08-23T15:17:53.169Z,0.80
2022-08-23T15:20:39.296Z,1.10
2022-08-23T15:23:24.543Z,1.17
2022-08-23T15:26:11.135Z,1.00
2022-08-23T15:28:56.700Z,1.20
2022-08-23T15:31:42.212Z,1.40
2022-08-23T15:34:29.640Z,1.52
2022-08-23T15:37:15.476Z,1.30
2022-08-23T15:40:01.017Z,1.55
2022-08-23T15:42:46.749Z,1.20
2022-08-23T15:45:33.264Z,1.05
2022-08-23T15:48:25.484Z,1.17
2022-08-23T15:51:11.321Z,1.30
2022-08-23T15:53:57.805Z,1.17
2022-08-23T15:56:48.041Z,1.15
2022-08-23T15:59:37.379Z,1.50
2022-08-23T16:02:22.967Z,1.10
2022-08-23T16:05:08.846Z,2.70
2022-08-23T16:07:56.531Z,2.28
2022-08-23T16:10:44.757Z,1.97
2022-08-23T16:13:30.472Z,2.10
2022-08-23T16:16:24.425Z,1.80
2022-08-23T16:19:10.133Z,1.70
2022-08-23T16:21:56.228Z,1.65
2022-08-23T16:24:41.997Z,1.70
2022-08-23T16:27:28.068Z,1.85
2022-08-23T16:30:14.107Z,1.98
2022-08-23T16:32:59.149Z,1.70
2022-08-23T16:35:44.540Z,1.98
2022-08-23T16:38:29.848Z,2.00
2022-08-23T16:41:15.510Z,1.83
2022-08-23T16:44:00.911Z,2.05
2022-08-23T16:46:46.834Z,1.95
2022-08-23T16:49:34.663Z,1.80
2022-08-23T16:52:20.661Z,2.47
2022-08-23T16:55:17.677Z,2.45
2022-08-23T16:58:04.273Z,2.30
2022-08-23T17:00:50.468Z,2.28
2022-08-23T17:03:35.992Z,2.20
2022-08-23T17:06:21.563Z,2.42
2022-08-23T17:09:06.861Z,2.42
2022-08-23T17:11:53.304Z,2.42
2022-08-23T17:14:38.632Z,2.25
2022-08-23T17:17:24.632Z,2.10
2022-08-23T17:20:12.952Z,2.10
2022-08-23T17:22:58.390Z,2.10
2022-08-23T17:25:47.588Z,2.28
2022-08-23T17:28:32.909Z,2.67
2022-08-23T17:31:19.585Z,2.13
2022-08-23T17:34:06.884Z,2.00
2022-08-23T17:36:55.108Z,1.98
2022-08-23T17:39:40.505Z,2.20
2022-08-23T17:42:26.312Z,2.60
2022-08-23T17:45:12.903Z,2.05
2022-08-23T17:47:58.212Z,1.98
2022-08-23T17:50:44.853Z,1.88
2022-08-23T17:53:30.075Z,1.50
2022-08-23T17:56:15.736Z,1.70
2022-08-23T17:59:01.302Z,1.63
2022-08-23T18:01:46.823Z,1.67
2022-08-23T18:04:32.471Z,1.77
2022-08-23T18:07:18.578Z,1.92
2022-08-23T18:10:07.048Z,1.63
2022-08-23T18:12:52.651Z,1.80
2022-08-23T18:15:37.769Z,1.83
2022-08-23T18:18:24.351Z,2.33
2022-08-23T18:21:12.597Z,2.40
2022-08-23T18:23:58.915Z,2.50
2022-08-23T18:27:03.352Z,2.92
2022-08-23T18:29:51.557Z,2.80
2022-08-23T18:32:37.365Z,2.78
2022-08-23T18:35:25.856Z,3.10
2022-08-23T18:38:12.623Z,2.65
2022-08-23T18:40:58.225Z,2.67
2022-08-23T18:43:43.755Z,2.35
2022-08-23T18:46:33.862Z,2.50
2022-08-23T18:49:19.540Z,2.80
2022-08-23T18:52:05.979Z,3.22
2022-08-23T18:54:51.340Z,3.30
2022-08-23T18:57:37.032Z,3.40
2022-08-23T19:00:22.604Z,2.97
2022-08-23T19:03:08.639Z,3.75
2022-08-23T19:05:56.773Z,3.20
2022-08-23T19:08:42.425Z,3.17
2022-08-23T19:11:29.205Z,2.90
2022-08-23T19:14:14.638Z,2.45
2022-08-23T19:17:03.499Z,2.40
2022-08-23T19:19:48.760Z,2.15
2022-08-23T19:22:34.484Z,1.80
2022-08-23T19:25:20.801Z,2.00
2022-08-23T19:28:06.293Z,1.90
2022-08-23T19:30:52.201Z,1.70
2022-08-23T19:33:37.665Z,1.63
2022-08-23T19:36:44.612Z,1.90
2022-08-23T19:39:29.976Z,1.88
2022-08-23T19:42:16.076Z,2.13
2022-08-23T19:45:01.565Z,1.90
2022-08-23T19:47:47.020Z,2.10
2022-08-23T19:50:32.509Z,1.88
2022-08-23T19:53:18.121Z,2.10
2022-08-23T19:56:04.334Z,1.70
2022-08-23T19:58:49.775Z,2.10
2022-08-23T20:01:36.037Z,2.00
2022-08-23T20:04:23.414Z,2.15
2022-08-23T20:07:09.083Z,2.00
2022-08-23T20:09:54.546Z,1.95
2022-08-23T20:12:41.698Z,2.17
2022-08-23T20:15:27.347Z,2.17
2022-08-23T20:18:12.556Z,2.50
2022-08-23T20:20:59.437Z,2.40
2022-08-23T20:24:03.562Z,2.40
2022-08-23T20:26:50.108Z,2.25
2022-08-23T20:29:35.311Z,2.60
2022-08-23T20:32:20.956Z,2.78
2022-08-23T20:35:07.917Z,2.50
2022-08-23T20:37:53.136Z,2.63
2022-08-23T20:40:38.884Z,2.70
2022-08-23T20:43:23.982Z,2.50
2022-08-23T20:46:09.719Z,2.45
2022-08-23T20:48:57.643Z,2.40
2022-08-23T20:51:43.328Z,2.25
2022-08-23T20:54:28.809Z,2.50
2022-08-23T20:57:14.050Z,2.60
2022-08-23T21:00:00.314Z,2.10
2022-08-23T21:02:45.650Z,2.33
2022-08-23T21:05:30.902Z,2.80
2022-08-23T21:08:16.792Z,2.40
2022-08-23T21:11:02.592Z,2.78
2022-08-23T21:13:48.133Z,3.25
2022-08-23T21:16:33.615Z,3.17
2022-08-23T21:19:19.091Z,2.90
2022-08-23T21:22:04.565Z,3.17
2022-08-23T21:24:49.857Z,3.20
2022-08-23T21:27:35.549Z,2.85
2022-08-23T21:30:20.781Z,3.17
2022-08-23T21:33:07.849Z,2.88
2022-08-23T21:35:53.013Z,2.45
2022-08-23T21:38:39.465Z,2.40
2022-08-23T21:41:45.699Z,2.00
2022-08-23T21:44:31.330Z,1.52
2022-08-23T21:47:16.587Z,1.48
2022-08-23T21:50:02.344Z,1.45
2022-08-23T21:52:56.507Z,1.65
2022-08-23T21:55:42.977Z,1.67
2022-08-23T21:58:29.554Z,1.90
2022-08-23T22:01:15.567Z,1.77
2022-08-23T22:04:06.078Z,2.08
2022-08-23T22:06:51.674Z,2.53
2022-08-23T22:09:41.339Z,2.47
2022-08-23T22:12:26.813Z,2.90
2022-08-23T22:15:12.932Z,2.90
2022-08-23T22:18:00.321Z,2.58
2022-08-23T22:20:45.608Z,2.67
2022-08-23T22:23:31.844Z,2.88
2022-08-23T22:26:16.922Z,2.70
2022-08-23T22:29:02.429Z,2.78
2022-08-23T22:31:48.502Z,2.60
2022-08-23T22:34:34.158Z,2.38
2022-08-23T22:37:19.620Z,2.10
2022-08-23T22:40:13.650Z,1.60
2022-08-23T22:42:59.071Z,1.50
2022-08-23T22:45:59.773Z,1.50
2022-08-23T22:48:46.197Z,1.40
2022-08-23T22:51:33.778Z,1.30
2022-08-23T22:54:19.431Z,1.20
2022-08-23T22:57:05.144Z,1.30
2022-08-23T22:59:50.592Z,1.10
2022-08-23T23:02:36.102Z,1.10
2022-08-23T23:05:21.938Z,1.00
2022-08-23T23:08:25.928Z,0.90
2022-08-23T23:11:13.399Z,1.05
2022-08-23T23:13:58.605Z,1.13
2022-08-23T23:16:45.132Z,1.00
2022-08-23T23:19:49.337Z,1.10
2022-08-23T23:22:34.411Z,1.10
2022-08-23T23:25:20.195Z,1.08
2022-08-23T23:28:05.851Z,1.02
2022-08-23T23:30:54.034Z,1.00
2022-08-23T23:33:39.480Z,1.20
2022-08-23T23:36:25.404Z,1.30
2022-08-23T23:39:12.681Z,1.10
2022-08-23T23:41:58.078Z,1.17
2022-08-23T23:44:43.423Z,1.00
2022-08-23T23:47:29.001Z,1.30
2022-08-23T23:50:14.485Z,1.20
2022-08-23T23:53:00.307Z,1.30
2022-08-23T23:55:46.019Z,1.27
2022-08-23T23:58:31.651Z,1.30
